Latest Weather Observations for Witchcliffe

IDW60801

Issued at 7:32 am WST Thursday 2 July 2015 (issued every 30 minutes, with the page automatically refreshed every 10 minutes)

About weather observations | Map of weather stations | Latest weather observations for WA | Other Formats
Station Details ID: 009746 Name: WITCHCLIFFE Lat: -34.03 Lon: 115.10 Height: 80.0 m
Data from the previous 72 hours. | See also: Recent months at Witchcliffe
Date/Time
WST
Temp
°C
App
Temp
°C
Dew
Point
Rel
Hum
%
Delta-T
°C
Wind Press
QNH
hPa
Press
MSL
hPa
Rain
since 9 am
mm
Dir
 
Spd
km/h
Gust
km/h
Spd
kts
Gust
kts
02/07:30am 13.3 12.0 11.4 88 1.0 N 9 19 5 10 1021.1 1021.1 1.2
02/07:00am 13.4 12.1 11.3 87 1.1 NNE 9 15 5 8 1020.9 1020.9 1.2
02/06:30am 13.8 11.5 11.7 87 1.1 NNE 15 22 8 12 1020.8 1020.8 1.2
02/06:00am 13.9 11.3 11.9 88 1.1 NNE 17 22 9 12 1021.1 1021.1 1.2
02/05:30am 14.3 13.4 12.5 89 1.0 NNE 9 15 5 8 1021.2 1021.2 1.2
02/05:00am 14.5 12.4 13.5 94 0.6 NNE 17 26 9 14 1021.4 1021.4 1.2
02/04:30am 14.8 13.1 14.6 99 0.1 NNE 17 24 9 13 1021.6 1021.6 1.0
02/04:00am 14.9 13.2 14.7 99 0.1 N 17 24 9 13 1021.6 1021.6 1.0
02/03:30am 14.8 12.5 14.6 99 0.1 N 20 28 11 15 1021.7 1021.7 1.0
02/03:00am 15.0 12.9 14.8 99 0.1 N 19 26 10 14 1021.8 1021.8 1.0
02/02:30am 15.3 14.6 15.3 100 0.0 NNE 13 19 7 10 1021.8 1021.8 1.0
02/02:00am 15.2 14.4 15.0 99 0.1 N 13 19 7 10 1022.4 1022.4 1.0
02/01:30am 15.1 15.0 14.9 99 0.1 N 9 15 5 8 1022.5 1022.5 1.0
02/01:00am 15.2 14.4 15.0 99 0.1 NNE 13 20 7 11 1022.8 1022.8 0.8
02/12:30am 15.2 14.7 15.0 99 0.1 N 11 15 6 8 1023.0 1023.0 0.6
02/12:00am 15.1 15.1 15.1 100 0.0 NNE 9 15 5 8 1023.0 1023.0 0.6
 
Date/Time
WST
Temp
°C
App
Temp
°C
Dew
Point
Rel
Hum
%
Delta-T
°C
Wind Press
QNH
hPa
Press
MSL
hPa
Rain
since 9 am
mm
Dir
 
Spd
km/h
Gust
km/h
Spd
kts
Gust
kts
01/11:30pm 14.8 15.9 14.6 99 0.1 NE 2 11 1 6 1023.2 1023.2 0.6
01/11:00pm 14.8 15.9 14.6 99 0.1 NNE 2 7 1 4 1023.4 1023.4 0.6
01/10:30pm 14.9 14.3 14.7 99 0.1 N 11 15 6 8 1023.7 1023.7 0.6
01/10:00pm 15.1 14.2 14.9 99 0.1 N 13 19 7 10 1023.7 1023.7 0.6
01/09:30pm 15.5 12.9 13.9 90 0.9 N 20 28 11 15 1023.6 1023.6 0.2
01/09:00pm 15.6 14.0 12.9 84 1.5 N 13 17 7 9 1023.5 1023.5 0.2
01/08:30pm 16.1 14.5 12.8 81 1.8 N 13 19 7 10 1023.5 1023.5 0.0
01/08:00pm 15.8 15.6 13.5 86 1.3 NNE 7 11 4 6 1023.5 1023.5 0.0
01/07:30pm 15.8 15.5 13.3 85 1.4 N 7 11 4 6 1023.4 1023.4 0.0
01/07:00pm 15.8 15.5 13.3 85 1.4 N 7 11 4 6 1023.3 1023.3 0.0
01/06:30pm 16.1 16.0 13.8 86 1.3 NNE 7 11 4 6 1023.1 1023.1 0.0
01/06:00pm 16.2 16.3 13.9 86 1.3 NNE 6 11 3 6 1023.0 1023.0 0.0
01/05:30pm 16.7 16.7 14.3 86 1.4 NNE 7 9 4 5 1022.9 1022.9 0.0
01/05:00pm 17.0 16.4 14.6 86 1.4 NNE 11 15 6 8 1022.7 1022.7 0.0
01/04:30pm 17.4 16.5 14.9 85 1.5 NNE 13 20 7 11 1022.6 1022.6 0.0
01/04:00pm 17.7 17.4 15.5 87 1.3 NNE 11 15 6 8 1022.7 1022.7 0.0
01/03:30pm 17.8 17.0 15.2 85 1.5 N 13 19 7 10 1022.8 1022.8 0.0
01/03:00pm 18.5 17.3 15.0 80 2.0 N 15 20 8 11 1022.5 1022.5 0.0
01/02:30pm 19.0 18.3 15.3 79 2.2 N 13 17 7 9 1022.4 1022.4 0.0
01/02:00pm 19.1 18.8 15.4 79 2.2 N 11 17 6 9 1022.4 1022.4 0.0
01/01:30pm 17.7 18.3 15.3 86 1.4 NNE 6 9 3 5 1022.8 1022.8 0.0
01/01:00pm 17.7 17.6 15.0 84 1.6 N 9 15 5 8 1022.9 1022.9 0.0
01/12:30pm 18.0 16.4 15.1 83 1.7 NNE 17 20 9 11 1023.3 1023.3 0.0
01/12:00pm 17.7 17.2 16.0 90 1.0 N 13 17 7 9 1023.8 1023.8 0.0
01/11:30am 17.4 17.4 17.2 99 0.1 N 13 20 7 11 1023.8 1023.8 0.0
01/11:00am 17.2 17.6 17.2 100 0.0 NNE 11 15 6 8 1023.9 1023.9 0.0
01/10:30am 16.0 18.0 16.0 100 0.0 CALM 0 0 0 0 1023.9 1023.9 0.0
01/10:00am 13.7 14.9 13.7 100 0.0 CALM 0 0 0 0 1024.1 1024.1 0.0
01/09:30am 12.0 12.6 12.0 100 0.0 CALM 0 0 0 0 1023.9 1023.9 0.0
01/09:00am 10.9 11.2 10.9 100 0.0 CALM 0 0 0 0 1023.6 1023.6 0.0
01/08:30am 10.2 10.3 10.2 100 0.0 CALM 0 0 0 0 1023.4 1023.4 0.0
01/08:00am 9.4 9.3 9.4 100 0.0 CALM 0 0 0 0 1023.2 1023.2 0.0
01/07:30am 9.2 9.0 9.2 100 0.0 CALM 0 0 0 0 1023.2 1023.2 0.0
01/07:00am 8.8 8.5 8.7 99 0.0 CALM 0 0 0 0 1022.8 1022.8 0.0
01/06:30am 8.4 8.0 8.3 99 0.0 CALM 0 0 0 0 1022.8 1022.8 0.0
01/06:00am 8.7 8.4 8.6 99 0.0 CALM 0 0 0 0 1022.6 1022.6 0.0
01/05:30am 8.3 7.9 8.2 99 0.0 CALM 0 0 0 0 1022.4 1022.4 0.0
01/05:00am 8.2 7.8 8.1 99 0.0 CALM 0 0 0 0 1022.4 1022.4 0.0
01/04:30am 8.2 7.8 8.1 99 0.0 CALM 0 0 0 0 1023.0 1023.0 0.0
01/04:00am 8.3 7.9 8.2 99 0.0 CALM 0 0 0 0 1023.1 1023.1 0.0
01/03:30am 8.6 8.3 8.5 99 0.0 CALM 0 0 0 0 1022.8 1022.8 0.0
01/03:00am 9.0 8.8 8.9 99 0.0 CALM 0 0 0 0 1022.8 1022.8 0.0
01/02:30am 9.6 9.5 9.5 99 0.0 CALM 0 0 0 0 1022.9 1022.9 0.0
01/02:00am 9.2 9.0 9.1 99 0.0 CALM 0 0 0 0 1022.8 1022.8 0.0
01/01:30am 9.7 9.6 9.6 99 0.1 CALM 0 0 0 0 1022.7 1022.7 0.0
01/01:00am 9.9 9.9 9.8 99 0.1 CALM 0 0 0 0 1022.7 1022.7 0.0
01/12:30am 10.5 10.6 10.3 99 0.1 CALM 0 0 0 0 1022.7 1022.7 0.0
01/12:00am 10.2 10.3 10.0 99 0.1 CALM 0 0 0 0 1022.9 1022.9 0.0
 
Date/Time
WST
Temp
°C
App
Temp
°C
Dew
Point
Rel
Hum
%
Delta-T
°C
Wind Press
QNH
hPa
Press
MSL
hPa
Rain
since 9 am
mm
Dir
 
Spd
km/h
Gust
km/h
Spd
kts
Gust
kts
30/11:30pm 10.5 10.6 10.3 99 0.1 CALM 0 0 0 0 1022.9 1022.9 0.0
30/11:00pm 10.9 11.1 10.6 98 0.2 CALM 0 0 0 0 1023.0 1023.0 0.0
30/10:30pm 11.4 11.7 10.9 97 0.3 CALM 0 0 0 0 1023.0 1023.0 0.0
30/10:00pm 11.7 12.0 10.9 95 0.4 CALM 0 0 0 0 1023.0 1023.0 0.0
30/09:30pm 11.8 12.0 10.7 93 0.6 CALM 0 0 0 0 1022.7 1022.7 0.0
30/09:00pm 12.4 12.1 11.3 93 0.6 SSE 4 7 2 4 1022.2 1022.2 0.0
30/08:30pm 12.7 13.1 11.3 91 0.7 CALM 0 6 0 3 1022.5 1022.5 0.0
30/08:00pm 13.0 13.4 11.1 88 1.0 CALM 0 0 0 0 1022.9 1022.9 0.0
30/07:30pm 13.0 13.2 10.7 86 1.2 CALM 0 0 0 0 1022.5 1022.5 0.0
30/07:00pm 13.1 13.3 10.5 84 1.4 CALM 0 0 0 0 1022.2 1022.2 0.0
30/06:30pm 13.6 13.8 10.6 82 1.6 CALM 0 0 0 0 1022.2 1022.2 0.0
30/06:00pm 14.1 14.5 11.1 82 1.6 CALM 0 0 0 0 1021.6 1021.6 0.0
30/05:30pm 14.4 14.1 11.6 83 1.5 NE 4 9 2 5 1021.5 1021.5 0.0
30/05:00pm 14.8 15.4 11.9 83 1.6 CALM 0 0 0 0 1021.6 1021.6 0.0
30/04:30pm 15.4 14.8 11.8 79 2.0 ESE 6 7 3 4 1021.9 1021.9 0.0
30/04:00pm 15.8 16.4 11.8 77 2.2 CALM 0 0 0 0 1021.7 1021.7 0.0
30/03:30pm 16.1 16.2 11.5 74 2.5 N 2 7 1 4 1021.8 1021.8 0.0
30/03:00pm 16.3 15.4 11.5 73 2.6 NNE 7 11 4 6 1021.3 1021.3 0.0
30/02:30pm 16.5 14.7 12.1 75 2.4 N 13 19 7 10 1021.5 1021.5 0.0
30/02:00pm 16.7 15.6 12.0 74 2.6 N 9 15 5 8 1021.3 1021.3 0.0
30/01:30pm 16.7 15.7 12.3 75 2.4 N 9 13 5 7 1021.2 1021.2 0.0
30/01:00pm 17.0 16.6 12.5 75 2.5 N 6 7 3 4 1021.2 1021.2 0.0
30/12:30pm 15.9 15.0 11.3 74 2.5 N 7 11 4 6 1021.4 1021.4 0.0
30/12:00pm 15.7 13.6 11.1 74 2.5 N 13 15 7 8 1021.9 1021.9 0.0
30/11:30am 15.6 16.1 12.7 83 1.6 NNE 2 9 1 5 1022.5 1022.5 0.0
30/11:00am 14.6 14.7 14.4 99 0.1 N 7 11 4 6 1023.1 1023.1 0.0
30/10:30am 13.9 15.1 13.9 100 0.0 CALM 0 0 0 0 1023.4 1023.4 0.0
30/10:00am 11.9 12.5 11.9 100 0.0 CALM 0 7 0 4 1023.4 1023.4 0.0
30/09:30am 10.3 10.4 10.3 100 0.0 CALM 0 0 0 0 1023.3 1023.3 0.0
30/09:00am 8.6 8.3 8.5 99 0.0 CALM 0 0 0 0 1023.5 1023.5 0.2
30/08:30am 6.7 5.9 6.6 99 0.0 CALM 0 0 0 0 1022.9 1022.9 0.2
30/08:00am 5.9 4.9 5.8 99 0.0 CALM 0 0 0 0 1023.0 1023.0 0.2
30/07:30am 5.5 4.5 5.4 99 0.0 CALM 0 0 0 0 1023.0 1023.0 0.2
30/07:00am 5.8 4.8 5.7 99 0.0 CALM 0 0 0 0 1022.6 1022.6 0.2
30/06:30am 5.1 3.2 5.0 99 0.0 N 4 9 2 5 1022.3 1022.3 0.2
30/06:00am 5.0 3.5 4.9 99 0.0 NNW 2 6 1 3 1022.4 1022.4 0.2
30/05:30am 4.7 3.5 4.6 99 0.0 CALM 0 0 0 0 1022.4 1022.4 0.2
30/05:00am 4.3 3.0 4.2 99 0.0 CALM 0 0 0 0 1022.5 1022.5 0.2
30/04:30am 5.1 4.0 5.0 99 0.0 CALM 0 0 0 0 1022.5 1022.5 0.2
30/04:00am 4.7 3.5 4.6 99 0.0 CALM 0 0 0 0 1022.2 1022.2 0.2
30/03:30am 5.1 4.0 5.0 99 0.0 CALM 0 2 0 1 1022.4 1022.4 0.2
30/03:00am 4.6 3.4 4.5 99 0.0 CALM 0 0 0 0 1022.4 1022.4 0.2
30/02:30am 4.5 3.3 4.4 99 0.0 CALM 0 0 0 0 1022.6 1022.6 0.2
30/02:00am 4.9 3.7 4.8 99 0.0 CALM 0 0 0 0 1022.8 1022.8 0.2
30/01:30am 5.1 4.0 5.0 99 0.0 CALM 0 0 0 0 1022.9 1022.9 0.2
30/01:00am 5.1 4.0 5.0 99 0.0 CALM 0 0 0 0 1023.3 1023.3 0.2
30/12:30am 4.9 3.7 4.8 99 0.0 CALM 0 0 0 0 1023.4 1023.4 0.2
30/12:00am 4.8 3.6 4.7 99 0.0 CALM 0 0 0 0 1023.4 1023.4 0.2
 
Date/Time
WST
Temp
°C
App
Temp
°C
Dew
Point
Rel
Hum
%
Delta-T
°C
Wind Press
QNH
hPa
Press
MSL
hPa
Rain
since 9 am
mm
Dir
 
Spd
km/h
Gust
km/h
Spd
kts
Gust
kts
29/11:30pm 5.2 4.1 5.1 99 0.0 CALM 0 0 0 0 1023.3 1023.3 0.2
29/11:00pm 5.9 4.9 5.8 99 0.0 CALM 0 0 0 0 1023.6 1023.6 0.2
29/10:30pm 6.6 5.8 6.5 99 0.0 CALM 0 0 0 0 1023.5 1023.5 0.2
29/10:00pm 6.5 5.7 6.4 99 0.0 CALM 0 0 0 0 1023.6 1023.6 0.2
29/09:30pm 7.5 6.9 7.4 99 0.0 CALM 0 0 0 0 1024.0 1024.0 0.2
29/09:00pm 7.5 6.9 7.4 99 0.0 CALM 0 0 0 0 1023.8 1023.8 0.2
29/08:30pm 7.3 6.5 6.7 96 0.3 CALM 0 0 0 0 1023.9 1023.9 0.2
29/08:00pm 8.6 8.1 8.0 96 0.3 CALM 0 0 0 0 1023.9 1023.9 0.2
29/07:30pm 9.1 8.7 8.2 94 0.4 CALM 0 0 0 0 1023.8 1023.8 0.2
29/07:00pm 9.1 8.5 7.5 90 0.8 CALM 0 0 0 0 1023.7 1023.7 0.2
29/06:30pm 9.9 9.3 7.5 85 1.1 CALM 0 0 0 0 1023.5 1023.5 0.2
29/06:00pm 10.7 10.1 7.6 81 1.5 CALM 0 0 0 0 1023.7 1023.7 0.2
29/05:30pm 12.3 11.7 7.4 72 2.4 CALM 0 0 0 0 1023.6 1023.6 0.2
29/05:00pm 14.4 14.1 8.6 68 2.9 CALM 0 0 0 0 1023.6 1023.6 0.2
29/04:30pm 15.7 15.5 8.9 64 3.5 CALM 0 0 0 0 1023.6 1023.6 0.2
29/04:00pm 17.3 16.2 7.1 51 5.1 SE 2 6 1 3 1023.8 1023.8 0.2
29/03:30pm 19.3 18.8 8.0 48 5.8 CALM 0 0 0 0 1023.8 1023.8 0.2
29/03:00pm 19.2 18.4 6.7 44 6.3 CALM 0 0 0 0 1023.7 1023.7 0.2
29/02:30pm 17.8 17.0 6.7 48 5.5 CALM 0 0 0 0 1023.6 1023.6 0.2
29/02:00pm 17.8 16.8 7.2 50 5.3 ESE 2 7 1 4 1023.8 1023.8 0.2
29/01:30pm 18.1 16.3 7.8 51 5.3 ENE 7 9 4 5 1023.9 1023.9 0.2
29/01:00pm 17.9 16.9 8.7 55 4.8 ENE 4 9 2 5 1024.2 1024.2 0.2
29/12:30pm 17.5 16.3 8.1 54 4.8 ESE 4 9 2 5 1024.7 1024.7 0.2
29/12:00pm 17.6 16.1 8.5 55 4.7 NE 6 7 3 4 1025.1 1025.1 0.2
29/11:30am 16.0 16.0 9.9 67 3.2 CALM 0 0 0 0 1025.4 1025.4 0.0
29/11:00am 15.1 15.0 9.5 69 2.9 CALM 0 0 0 0 1025.8 1025.8 0.0
29/10:30am 13.3 13.4 10.3 82 1.6 CALM 0 0 0 0 1026.0 1026.0 0.0
29/10:00am 11.3 10.3 11.0 98 0.2 S 7 9 4 5 1026.1 1026.1 0.0
29/09:30am 10.5 10.6 10.3 99 0.1 CALM 0 0 0 0 1026.0 1026.0 0.0
29/09:00am 8.6 8.3 8.5 99 0.0 CALM 0 0 0 0 1025.8 1025.8 0.0
29/08:30am 7.1 6.4 7.0 99 0.0 CALM 0 0 0 0 1025.9 1025.9 0.0
29/08:00am 4.4 3.1 4.3 99 0.0 CALM 0 0 0 0 1025.8 1025.8 0.0

Other Formats:

Comma delimited format used in spreadsheet applications
http://www.bom.gov.au/fwo/IDW60801/IDW60801.95641.axf

JavaScript Object Notation format (JSON) in row-major order
http://www.bom.gov.au/fwo/IDW60801/IDW60801.95641.json